sensor_id;sensor_type;location;lat;lon;timestamp;P1;durP1;ratioP1;P2;durP2;ratioP2
75758;SDS011;64371;47.566;19.086;2023-07-08T00:01:52;8.40;;;4.00;;
75758;SDS011;64371;47.566;19.086;2023-07-08T00:04:54;7.38;;;4.50;;
75758;SDS011;64371;47.566;19.086;2023-07-08T00:07:57;7.03;;;4.30;;
75758;SDS011;64371;47.566;19.086;2023-07-08T00:10:59;6.27;;;3.73;;
75758;SDS011;64371;47.566;19.086;2023-07-08T00:14:02;5.70;;;3.80;;
75758;SDS011;64371;47.566;19.086;2023-07-08T00:17:08;7.22;;;3.95;;
75758;SDS011;64371;47.566;19.086;2023-07-08T00:20:19;6.57;;;3.70;;
75758;SDS011;64371;47.566;19.086;2023-07-08T00:23:25;8.25;;;4.07;;
75758;SDS011;64371;47.566;19.086;2023-07-08T00:26:28;5.70;;;3.70;;
75758;SDS011;64371;47.566;19.086;2023-07-08T00:29:34;5.07;;;3.60;;
75758;SDS011;64371;47.566;19.086;2023-07-08T00:32:37;7.72;;;3.58;;
75758;SDS011;64371;47.566;19.086;2023-07-08T00:35:44;4.57;;;3.30;;
75758;SDS011;64371;47.566;19.086;2023-07-08T00:38:47;5.13;;;3.47;;
75758;SDS011;64371;47.566;19.086;2023-07-08T00:41:49;4.93;;;3.40;;
75758;SDS011;64371;47.566;19.086;2023-07-08T00:44:53;5.10;;;3.30;;
75758;SDS011;64371;47.566;19.086;2023-07-08T00:47:58;5.40;;;3.78;;
75758;SDS011;64371;47.566;19.086;2023-07-08T00:51:10;5.30;;;3.70;;
75758;SDS011;64371;47.566;19.086;2023-07-08T00:54:15;6.82;;;3.95;;
75758;SDS011;64371;47.566;19.086;2023-07-08T00:57:20;5.57;;;4.03;;
75758;SDS011;64371;47.566;19.086;2023-07-08T01:00:25;5.18;;;3.20;;
75758;SDS011;64371;47.566;19.086;2023-07-08T01:03:29;5.03;;;3.30;;
75758;SDS011;64371;47.566;19.086;2023-07-08T01:06:34;5.72;;;2.85;;
75758;SDS011;64371;47.566;19.086;2023-07-08T01:09:43;5.68;;;3.50;;
75758;SDS011;64371;47.566;19.086;2023-07-08T01:12:51;5.87;;;3.00;;
75758;SDS011;64371;47.566;19.086;2023-07-08T01:15:59;4.25;;;2.92;;
75758;SDS011;64371;47.566;19.086;2023-07-08T01:19:01;4.50;;;3.00;;
75758;SDS011;64371;47.566;19.086;2023-07-08T01:22:06;3.95;;;3.10;;
75758;SDS011;64371;47.566;19.086;2023-07-08T01:25:10;5.20;;;3.22;;
75758;SDS011;64371;47.566;19.086;2023-07-08T01:28:15;4.37;;;3.17;;
75758;SDS011;64371;47.566;19.086;2023-07-08T01:31:18;5.38;;;3.30;;
75758;SDS011;64371;47.566;19.086;2023-07-08T01:34:21;5.55;;;3.65;;
75758;SDS011;64371;47.566;19.086;2023-07-08T01:37:24;6.18;;;3.35;;
75758;SDS011;64371;47.566;19.086;2023-07-08T01:40:31;6.85;;;3.40;;
75758;SDS011;64371;47.566;19.086;2023-07-08T01:43:35;4.97;;;3.53;;
75758;SDS011;64371;47.566;19.086;2023-07-08T01:46:38;6.22;;;3.42;;
75758;SDS011;64371;47.566;19.086;2023-07-08T01:49:41;4.20;;;3.00;;
75758;SDS011;64371;47.566;19.086;2023-07-08T01:52:48;4.45;;;3.17;;
75758;SDS011;64371;47.566;19.086;2023-07-08T01:55:53;4.90;;;3.40;;
75758;SDS011;64371;47.566;19.086;2023-07-08T01:58:55;5.20;;;3.10;;
75758;SDS011;64371;47.566;19.086;2023-07-08T02:01:58;5.00;;;3.10;;
75758;SDS011;64371;47.566;19.086;2023-07-08T02:05:00;5.90;;;3.58;;
75758;SDS011;64371;47.566;19.086;2023-07-08T02:08:02;5.40;;;3.22;;
75758;SDS011;64371;47.566;19.086;2023-07-08T02:11:05;4.82;;;3.30;;
75758;SDS011;64371;47.566;19.086;2023-07-08T02:14:07;5.47;;;3.43;;
75758;SDS011;64371;47.566;19.086;2023-07-08T02:17:10;5.32;;;3.20;;
75758;SDS011;64371;47.566;19.086;2023-07-08T02:20:13;6.10;;;3.30;;
75758;SDS011;64371;47.566;19.086;2023-07-08T02:23:15;7.13;;;3.22;;
75758;SDS011;64371;47.566;19.086;2023-07-08T02:26:17;5.75;;;3.20;;
75758;SDS011;64371;47.566;19.086;2023-07-08T02:29:20;4.83;;;3.30;;
75758;SDS011;64371;47.566;19.086;2023-07-08T02:32:23;6.22;;;3.70;;
75758;SDS011;64371;47.566;19.086;2023-07-08T02:35:26;5.75;;;3.25;;
